Time;durP1;ratioP1;P1;durP2;ratioP2;P2;SDS_P1;SDS_P2;PMS_P1;PMS_P2;Temp;Humidity;BMP_temperature;BMP_pressure;BME280_temperature;BME280_humidity;BME280_pressure;Samples;Min_cycle;Max_cycle;Signal;HPM_P1;HPM_P2
2023/05/29 00:02:19;;;;;;;7.35;4.07;;;;;;;9.73;70.86;99591.44;4807561;29;20052;-75
2023/05/29 00:04:47;;;;;;;9.27;4.70;;;;;;;9.73;70.42;99591.44;4808824;29;20050;-72
2023/05/29 00:07:13;;;;;;;6.70;3.50;;;;;;;9.70;70.24;99585.50;4823811;29;20054;-73
2023/05/29 00:10:06;;;;;;;5.90;3.53;;;;;;;9.76;70.31;99590.38;4801451;29;20073;-69
2023/05/29 00:12:32;;;;;;;7.07;3.22;;;;;;;9.66;70.19;99584.84;4807442;29;20049;-70
2023/05/29 00:14:59;;;;;;;7.85;4.47;;;;;;;9.65;70.55;99615.06;4808084;29;20540;-71
2023/05/29 00:17:26;;;;;;;4.45;3.67;;;;;;;9.65;70.43;99593.78;4808351;29;20053;-71
2023/05/29 00:19:51;;;;;;;8.23;4.30;;;;;;;9.64;70.53;99607.19;4806987;29;20073;-71
2023/05/29 00:22:16;;;;;;;9.00;3.75;;;;;;;9.63;70.23;99600.16;4822363;29;20149;-72
2023/05/29 00:27:36;;;;;;;5.28;4.15;;;;;;;9.56;70.90;99594.41;4807552;29;20445;-69
2023/05/29 00:30:54;;;;;;;4.35;3.25;;;;;;;9.62;70.62;99609.09;4820029;29;20050;-71
2023/05/29 00:33:22;;;;;;;7.57;3.92;;;;;;;9.53;71.17;99604.41;4817370;29;20057;-74
2023/05/29 00:35:48;;;;;;;8.95;4.85;;;;;;;9.50;71.14;99604.59;4818399;29;20057;-74
2023/05/29 00:38:15;;;;;;;6.20;3.45;;;;;;;9.48;70.59;99596.72;4805422;29;20058;-74
2023/05/29 00:40:43;;;;;;;6.88;3.85;;;;;;;9.47;70.58;99603.03;4806325;29;20050;-74
2023/05/29 00:43:18;;;;;;;6.65;3.75;;;;;;;9.46;71.38;99598.66;4791790;29;20064;-74
2023/05/29 00:45:44;;;;;;;8.55;5.03;;;;;;;9.46;71.05;99593.34;4807941;29;20056;-71
2023/05/29 00:48:12;;;;;;;7.93;3.72;;;;;;;9.44;71.55;99600.56;4813969;29;20164;-73
2023/05/29 00:50:38;;;;;;;5.30;3.40;;;;;;;9.41;71.63;99590.13;4804655;29;20442;-75
2023/05/29 00:53:04;;;;;;;8.35;4.13;;;;;;;9.41;71.21;99604.28;4799235;29;20058;-75
2023/05/29 00:55:30;;;;;;;5.95;3.70;;;;;;;9.40;71.55;99599.06;4820387;29;20068;-77
2023/05/29 00:57:57;;;;;;;6.38;3.72;;;;;;;9.40;72.39;99605.22;4802887;29;20081;-71
2023/05/29 01:00:25;;;;;;;8.65;5.50;;;;;;;9.40;72.00;99610.56;4785247;29;20054;-74
2023/05/29 01:02:52;;;;;;;7.63;4.18;;;;;;;9.41;71.42;99612.25;4817836;29;20045;-76
2023/05/29 01:05:21;;;;;;;10.68;4.03;;;;;;;9.40;71.66;99617.69;4806733;29;20524;-71
2023/05/29 01:07:48;;;;;;;6.32;3.38;;;;;;;9.39;71.78;99618.63;4806362;29;20042;-70
2023/05/29 01:10:21;;;;;;;7.18;4.00;;;;;;;9.38;71.95;99628.41;4806220;29;20049;-71
2023/05/29 01:13:06;;;;;;;6.07;4.30;;;;;;;9.46;71.23;99612.81;4821483;29;20057;-70
2023/05/29 01:15:46;;;;;;;16.92;4.75;;;;;;;9.46;72.14;99615.47;4806107;29;20066;-70
2023/05/29 01:18:22;;;;;;;7.38;3.33;;;;;;;9.45;71.38;99624.41;4807624;29;20065;-71
2023/05/29 01:20:58;;;;;;;6.38;3.58;;;;;;;9.43;71.78;99613.00;4806430;29;20045;-71
2023/05/29 01:23:52;;;;;;;6.25;4.00;;;;;;;9.49;71.38;99617.06;4791179;29;20058;-71
2023/05/29 01:26:52;;;;;;;5.53;3.22;;;;;;;9.48;72.16;99618.88;4806233;29;20050;-70
2023/05/29 01:30:07;;;;;;;5.72;3.85;;;;;;;9.48;72.02;99615.34;4807215;29;20511;-70
2023/05/29 01:32:38;;;;;;;6.97;3.67;;;;;;;9.41;71.95;99628.22;4806165;29;20042;-70
2023/05/29 01:37:55;;;;;;;8.65;4.10;;;;;;;9.41;71.92;99612.25;4806091;29;20046;-70
2023/05/29 01:40:22;;;;;;;8.57;3.40;;;;;;;9.41;72.43;99612.25;4821183;29;20061;-70
2023/05/29 01:42:49;;;;;;;8.70;3.67;;;;;;;9.44;72.63;99622.72;4790679;29;20049;-71
2023/05/29 01:45:16;;;;;;;7.25;3.80;;;;;;;9.48;72.17;99618.88;4817264;29;20073;-72
2023/05/29 01:47:47;;;;;;;9.05;4.28;;;;;;;9.54;72.53;99614.94;4787618;29;20054;-73
2023/05/29 01:50:17;;;;;;;7.97;3.78;;;;;;;9.62;72.70;99625.06;4790606;29;20050;-73
2023/05/29 01:52:44;;;;;;;7.03;3.92;;;;;;;9.66;72.29;99615.94;4788440;29;20050;-72
2023/05/29 01:55:10;;;;;;;8.57;3.83;;;;;;;9.75;72.45;99623.28;4788440;29;20065;-72
2023/05/29 01:57:36;;;;;;;6.32;3.90;;;;;;;9.82;72.47;99620.09;4789524;29;20061;-71
2023/05/29 02:00:08;;;;;;;6.50;4.72;;;;;;;9.89;72.21;99623.19;4790245;29;20084;-71
2023/05/29 02:02:40;;;;;;;4.55;3.47;;;;;;;9.98;71.76;99600.41;4795052;29;20054;-70
2023/05/29 02:05:08;;;;;;;6.30;3.90;;;;;;;10.05;71.03;99629.16;4799004;29;20050;-70
2023/05/29 02:07:36;;;;;;;6.80;3.50;;;;;;;10.14;70.87;99633.00;4800390;29;20061;-71
2023/05/29 02:10:06;;;;;;;10.77;4.32;;;;;;;10.23;70.41;99627.06;4801777;29;20042;-77
2023/05/29 02:12:32;;;;;;;5.40;3.40;;;;;;;10.29;70.78;99631.94;4807260;29;20516;-80
2023/05/29 02:15:01;;;;;;;6.75;3.60;;;;;;;10.38;70.02;99631.31;4779936;29;20532;-80
2023/05/29 02:17:57;;;;;;;6.00;3.80;;;;;;;10.53;69.58;99646.19;4811561;29;20061;-77
2023/05/29 02:23:21;;;;;;;5.55;3.45;;;;;;;10.77;68.78;99658.75;4808703;29;20061;-75
2023/05/29 02:25:48;;;;;;;8.73;4.00;;;;;;;10.86;68.41;99632.25;4806825;29;20145;-77
2023/05/29 02:28:14;;;;;;;8.38;4.25;;;;;;;10.97;67.64;99650.13;4806885;29;20065;-76
2023/05/29 02:30:40;;;;;;;6.82;3.72;;;;;;;11.08;66.70;99631.53;4822474;29;20049;-75
2023/05/29 02:33:10;;;;;;;9.82;4.30;;;;;;;11.19;66.74;99639.59;4820951;29;20056;-75
2023/05/29 02:35:35;;;;;;;6.45;3.90;;;;;;;11.29;66.10;99627.25;4804705;29;20057;-71
2023/05/29 02:38:06;;;;;;;6.90;3.65;;;;;;;11.42;65.38;99640.56;4805568;29;20072;-69
2023/05/29 02:40:31;;;;;;;6.78;3.83;;;;;;;11.52;65.68;99630.03;4806402;29;20045;-69
2023/05/29 02:42:59;;;;;;;5.05;3.50;;;;;;;11.61;65.49;99634.69;4786812;29;20050;-73
2023/05/29 02:45:24;;;;;;;5.85;3.67;;;;;;;11.73;64.38;99648.94;4819749;29;20054;-73
2023/05/29 02:47:52;;;;;;;7.50;3.67;;;;;;;11.83;64.10;99666.84;4801545;29;20050;-72
2023/05/29 02:50:18;;;;;;;9.52;3.58;;;;;;;11.97;63.66;99626.53;4802132;29;20061;-72
2023/05/29 02:52:44;;;;;;;6.05;4.03;;;;;;;12.11;63.77;99625.47;4801890;29;20062;-70
2023/05/29 02:55:12;;;;;;;5.47;3.35;;;;;;;12.27;63.11;99627.81;4792928;29;20061;-72
2023/05/29 02:57:40;;;;;;;4.97;4.00;;;;;;;12.38;62.68;99634.97;4805279;29;20050;-72
2023/05/29 03:00:07;;;;;;;4.78;3.33;;;;;;;12.50;62.60;99640.22;4793439;29;20062;-71
2023/05/29 03:03:01;;;;;;;5.85;3.67;;;;;;;12.65;61.24;99632.78;4804755;29;20046;-68
2023/05/29 03:05:30;;;;;;;5.90;3.85;;;;;;;12.79;61.50;99639.69;4810060;29;20058;-67
2023/05/29 03:08:00;;;;;;;7.97;3.50;;;;;;;12.95;60.95;99645.50;4814613;29;20513;-68
2023/05/29 03:10:28;;;;;;;7.95;3.53;;;;;;;13.09;60.14;99642.56;4815811;29;20057;-69
2023/05/29 03:12:54;;;;;;;6.38;3.35;;;;;;;13.18;59.92;99615.06;4801445;29;20046;-70
2023/05/29 03:15:20;;;;;;;11.32;4.30;;;;;;;13.30;59.29;99640.84;4785062;29;20050;-70
2023/05/29 03:17:48;;;;;;;6.72;3.70;;;;;;;13.45;58.86;99644.06;4808308;29;20398;-70
2023/05/29 03:20:19;;;;;;;7.72;2.92;;;;;;;13.62;58.51;99656.91;4802072;29;20046;-70
2023/05/29 03:22:45;;;;;;;4.90;3.45;;;;;;;13.74;58.05;99641.63;4786649;29;20065;-69
2023/05/29 03:25:11;;;;;;;6.57;3.10;;;;;;;13.82;56.61;99673.97;4786644;29;20061;-69
2023/05/29 03:27:37;;;;;;;4.88;2.60;;;;;;;13.86;56.79;99659.34;4786635;29;20061;-69
2023/05/29 03:30:09;;;;;;;7.80;4.10;;;;;;;13.97;56.22;99655.75;4786853;29;20061;-69
2023/05/29 03:32:37;;;;;;;4.85;3.33;;;;;;;14.12;56.05;99676.72;4801627;29;20589;-68
2023/05/29 03:35:04;;;;;;;6.38;2.72;;;;;;;14.25;55.28;99663.09;4802074;29;20058;-68
2023/05/29 03:37:33;;;;;;;4.47;3.08;;;;;;;14.46;54.89;99657.75;4818628;29;20058;-68
2023/05/29 03:40:01;;;;;;;6.82;2.85;;;;;;;14.58;53.71;99650.47;4803844;29;20053;-68
2023/05/29 03:42:58;;;;;;;3.20;2.65;;;;;;;14.88;53.14;99651.28;4801024;29;20061;-69
2023/05/29 03:45:25;;;;;;;6.43;3.47;;;;;;;14.92;52.18;99638.44;4786489;29;20049;-69
2023/05/29 03:47:51;;;;;;;3.45;2.97;;;;;;;15.03;52.50;99653.56;4770764;29;20051;-69
2023/05/29 03:50:17;;;;;;;10.27;3.63;;;;;;;15.08;51.24;99654.03;4804383;29;20046;-69
2023/05/29 03:53:11;;;;;;;5.63;3.15;;;;;;;15.33;49.73;99653.50;4804130;29;20413;-69
2023/05/29 03:55:37;;;;;;;3.03;2.78;;;;;;;15.33;50.71;99675.00;4785894;29;20540;-69
2023/05/29 03:58:30;;;;;;;7.15;3.15;;;;;;;15.54;50.05;99669.50;4776106;29;20083;-69
2023/05/29 04:00:58;;;;;;;4.25;2.85;;;;;;;15.66;49.20;99665.72;4808151;29;20057;-69
2023/05/29 04:03:24;;;;;;;6.03;2.10;;;;;;;15.73;48.43;99677.59;4804415;29;20049;-71
2023/05/29 04:05:49;;;;;;;5.45;2.80;;;;;;;15.81;48.79;99674.19;4804405;29;20528;-70
2023/05/29 04:08:15;;;;;;;7.20;2.58;;;;;;;15.96;48.48;99657.50;4789017;29;20061;-70
2023/05/29 04:11:08;;;;;;;15.10;3.22;;;;;;;16.13;48.15;99664.00;4806422;29;20061;-70
2023/05/29 04:13:38;;;;;;;4.05;2.17;;;;;;;16.28;47.91;99662.53;4807144;29;20063;-71
2023/05/29 04:16:06;;;;;;;7.43;3.28;;;;;;;16.36;47.10;99664.50;4791708;29;20053;-69
2023/05/29 04:18:32;;;;;;;5.15;2.38;;;;;;;16.44;46.18;99661.94;4807244;29;20065;-69
2023/05/29 04:20:58;;;;;;;8.10;2.92;;;;;;;16.53;46.30;99665.56;4808416;29;20559;-72
2023/05/29 04:26:17;;;;;;;2.70;2.30;;;;;;;16.82;46.31;99665.47;4791679;29;20057;-69
2023/05/29 04:28:44;;;;;;;4.13;2.53;;;;;;;17.03;45.71;99658.88;4807087;29;20492;-71
2023/05/29 04:31:22;;;;;;;9.52;3.08;;;;;;;17.19;44.68;99657.34;4792777;29;20046;-70
2023/05/29 04:33:49;;;;;;;8.68;3.03;;;;;;;17.36;44.59;99656.53;4791775;29;20061;-68
2023/05/29 04:36:17;;;;;;;7.97;3.08;;;;;;;17.64;43.75;99651.94;4807417;29;20612;-70
2023/05/29 04:38:44;;;;;;;4.00;2.85;;;;;;;17.96;43.08;99668.41;4807494;29;20064;-69
2023/05/29 04:41:14;;;;;;;6.82;3.00;;;;;;;18.43;42.75;99666.22;4792237;29;20053;-69
2023/05/29 04:43:46;;;;;;;5.35;3.17;;;;;;;18.98;41.40;99682.09;4807615;29;20065;-68
2023/05/29 04:46:12;;;;;;;9.65;3.25;;;;;;;19.38;40.29;99673.28;4807498;29;20045;-69
2023/05/29 04:48:42;;;;;;;12.00;4.10;;;;;;;19.79;39.16;99671.53;4791823;29;20527;-69
2023/05/29 04:51:10;;;;;;;4.35;2.88;;;;;;;20.13;37.60;99665.09;4806973;29;20049;-69
2023/05/29 04:53:41;;;;;;;6.00;3.15;;;;;;;20.52;37.36;99689.63;4776073;29;20053;-70
2023/05/29 04:56:10;;;;;;;3.70;3.10;;;;;;;20.98;36.91;99669.00;4806919;29;20413;-71
2023/05/29 04:58:36;;;;;;;7.25;2.97;;;;;;;21.41;36.22;99664.09;4791546;29;20061;-71
2023/05/29 05:01:28;;;;;;;8.05;3.15;;;;;;;21.87;36.09;99660.38;4807753;29;20050;-70
2023/05/29 05:03:55;;;;;;;3.90;2.30;;;;;;;22.21;35.53;99688.97;4806614;29;20062;-69
2023/05/29 05:06:46;;;;;;;6.57;2.90;;;;;;;22.60;35.07;99667.88;4806227;29;20077;-69
2023/05/29 05:09:14;;;;;;;10.43;3.65;;;;;;;22.76;33.54;99675.03;4776316;29;20057;-70
2023/05/29 05:11:43;;;;;;;5.40;3.03;;;;;;;22.77;33.86;99674.84;4806556;29;20049;-69
2023/05/29 05:14:17;;;;;;;7.35;3.22;;;;;;;22.91;32.77;99669.63;4791151;29;20066;-69
2023/05/29 05:19:37;;;;;;;7.47;2.67;;;;;;;22.92;32.96;99665.84;4787943;29;20061;-70
2023/05/29 05:22:03;;;;;;;5.18;3.35;;;;;;;23.15;33.31;99661.97;4787297;29;20053;-70
2023/05/29 05:24:29;;;;;;;5.45;3.75;;;;;;;23.48;33.04;99662.34;4773418;29;20074;-70
2023/05/29 05:26:55;;;;;;;7.20;3.63;;;;;;;23.73;32.17;99687.38;4788107;29;20406;-69
2023/05/29 05:29:21;;;;;;;6.60;2.88;;;;;;;23.94;31.89;99639.41;4810046;29;20061;-70
2023/05/29 05:31:46;;;;;;;4.53;3.03;;;;;;;24.14;31.30;99665.81;4807813;29;20046;-70
2023/05/29 05:37:09;;;;;;;4.10;2.83;;;;;;;24.56;30.34;99683.13;4805976;29;20053;-69
2023/05/29 05:39:39;;;;;;;9.27;3.20;;;;;;;24.62;29.97;99665.97;4806844;29;20089;-69
2023/05/29 05:42:32;;;;;;;5.22;3.15;;;;;;;24.67;29.63;99679.88;4806880;29;20050;-70
2023/05/29 05:45:24;;;;;;;6.25;2.90;;;;;;;25.09;30.00;99678.88;4805831;29;20046;-69
2023/05/29 05:47:50;;;;;;;6.50;2.88;;;;;;;25.64;29.42;99657.91;4805447;29;20501;-70
2023/05/29 05:50:24;;;;;;;7.32;3.40;;;;;;;25.88;28.24;99689.25;4776182;29;20065;-70
2023/05/29 05:52:51;;;;;;;4.60;2.92;;;;;;;26.27;27.29;99666.63;4805705;29;20058;-70
2023/05/29 05:55:18;;;;;;;4.82;3.05;;;;;;;26.98;27.38;99667.59;4806267;29;20050;-75
2023/05/29 05:57:44;;;;;;;3.70;2.90;;;;;;;27.77;26.00;99670.00;4807246;29;20057;-75
2023/05/29 06:00:13;;;;;;;6.40;2.95;;;;;;;28.53;24.97;99672.63;4807726;29;20063;-74
2023/05/29 06:02:45;;;;;;;4.18;3.10;;;;;;;29.19;23.55;99663.72;4809036;29;20046;-75
2023/05/29 06:05:18;;;;;;;5.03;2.88;;;;;;;29.81;23.56;99666.28;4807621;29;20057;-75
2023/05/29 06:08:09;;;;;;;6.07;3.03;;;;;;;30.66;23.07;99675.97;4807334;29;20061;-74
2023/05/29 06:10:41;;;;;;;3.13;2.85;;;;;;;31.35;21.77;99667.88;4807546;29;20046;-74
2023/05/29 06:13:06;;;;;;;2.88;2.65;;;;;;;31.96;21.11;99658.03;4810790;29;20517;-74
2023/05/29 06:15:46;;;;;;;5.07;3.35;;;;;;;32.70;21.01;99661.53;4809432;29;20062;-76
2023/05/29 06:18:12;;;;;;;5.13;2.97;;;;;;;33.22;20.16;99662.00;4807386;29;20139;-75
2023/05/29 06:20:38;;;;;;;4.30;3.38;;;;;;;33.82;20.01;99661.09;4790907;29;20056;-69
2023/05/29 06:23:10;;;;;;;11.98;3.15;;;;;;;34.42;18.96;99657.25;4805706;29;20054;-69
2023/05/29 06:25:39;;;;;;;2.75;2.47;;;;;;;34.86;18.05;99663.41;4805548;29;20130;-70
2023/05/29 06:28:08;;;;;;;3.17;2.60;;;;;;;35.10;17.70;99666.59;4805377;29;20061;-71
2023/05/29 06:30:35;;;;;;;6.22;3.70;;;;;;;35.28;17.76;99643.97;4806236;29;20046;-70
2023/05/29 06:33:30;;;;;;;3.22;2.78;;;;;;;35.75;17.24;99677.16;4803584;29;20061;-70
2023/05/29 06:36:21;;;;;;;5.55;3.45;;;;;;;36.13;17.08;99664.69;4798913;29;20050;-69
2023/05/29 06:38:52;;;;;;;9.85;3.08;;;;;;;36.29;16.61;99696.13;4787879;29;20100;-71
2023/05/29 06:41:18;;;;;;;5.32;3.75;;;;;;;36.41;16.68;99670.88;4787083;29;20050;-71
2023/05/29 06:43:46;;;;;;;3.92;3.20;;;;;;;36.43;15.66;99704.75;4787160;29;20069;-70
2023/05/29 06:49:29;;;;;;;8.02;3.25;;;;;;;37.33;15.53;99672.38;4797599;29;20041;-78
2023/05/29 06:51:54;;;;;;;5.22;3.75;;;;;;;37.73;15.68;99671.38;4802062;29;20057;-74
2023/05/29 06:54:26;;;;;;;7.53;3.90;;;;;;;38.14;15.39;99672.81;4790345;29;20050;-74
2023/05/29 06:57:01;;;;;;;4.50;3.40;;;;;;;38.65;14.98;99685.47;4804852;29;20050;-72
2023/05/29 06:59:30;;;;;;;5.13;3.97;;;;;;;38.95;15.37;99665.66;4808021;29;20057;-70
2023/05/29 07:01:57;;;;;;;3.63;3.33;;;;;;;39.20;14.59;99679.34;4790698;29;20481;-71
2023/05/29 07:07:15;;;;;;;8.35;3.78;;;;;;;39.92;14.61;99674.53;4808295;29;20054;-74
2023/05/29 07:09:42;;;;;;;4.30;4.00;;;;;;;40.26;14.39;99674.28;4793003;29;20054;-74
2023/05/29 07:12:08;;;;;;;4.25;3.85;;;;;;;40.74;14.08;99662.06;4811324;29;20057;-74
2023/05/29 07:15:28;;;;;;;4.78;3.80;;;;;;;41.90;13.67;99667.19;4795716;29;20076;-71
2023/05/29 07:18:03;;;;;;;4.65;4.05;;;;;;;42.14;13.18;99650.13;4791230;29;20054;-70
2023/05/29 07:20:28;;;;;;;5.25;4.72;;;;;;;42.19;12.95;99667.63;4808876;29;20054;-71
2023/05/29 07:22:56;;;;;;;7.43;4.07;;;;;;;42.33;12.52;99673.16;4806623;29;20493;-71
2023/05/29 07:25:23;;;;;;;5.45;4.40;;;;;;;42.56;12.73;99674.81;4806962;29;20046;-74
2023/05/29 07:28:15;;;;;;;5.15;4.85;;;;;;;42.73;12.04;99688.97;4814738;29;20070;-74
2023/05/29 07:30:41;;;;;;;5.07;4.78;;;;;;;42.35;12.29;99680.09;4807954;29;20052;-75
2023/05/29 07:33:32;;;;;;;5.05;4.75;;;;;;;42.78;11.53;99671.19;4804147;29;20061;-75
2023/05/29 07:35:57;;;;;;;5.57;4.85;;;;;;;42.06;12.77;99659.28;4798630;29;20061;-76
2023/05/29 07:38:26;;;;;;;5.20;4.88;;;;;;;41.97;12.27;99646.03;4806345;29;20112;-75
2023/05/29 07:40:58;;;;;;;;;;;;;;;43.76;12.17;99668.94;4791285;29;20050;-70
2023/05/29 07:43:35;;;;;;;5.90;5.30;;;;;;;42.95;12.35;99660.06;4819364;29;19928;-70
2023/05/29 07:46:04;;;;;;;5.40;5.10;;;;;;;43.33;12.06;99646.38;4791345;29;20057;-71
2023/05/29 07:48:32;;;;;;;6.32;5.72;;;;;;;43.64;11.66;99659.50;4777772;29;20062;-71
2023/05/29 07:51:24;;;;;;;6.40;5.90;;;;;;;44.36;11.64;99647.66;4807867;29;20141;-69
2023/05/29 07:54:20;;;;;;;7.40;6.80;;;;;;;45.86;11.47;99650.78;4808201;29;20053;-70
2023/05/29 07:56:48;;;;;;;11.80;7.30;;;;;;;45.81;11.02;99636.09;4807812;29;20413;-71
2023/05/29 07:59:16;;;;;;;8.57;7.88;;;;;;;46.04;10.69;99664.78;4807872;29;20343;-77
2023/05/29 08:01:44;;;;;;;7.68;7.18;;;;;;;46.14;10.79;99656.72;4792491;29;20054;-76
2023/05/29 08:04:21;;;;;;;8.43;7.82;;;;;;;46.36;11.15;99658.34;4793634;29;20065;-75
2023/05/29 08:06:46;;;;;;;8.52;7.95;;;;;;;45.86;10.37;99649.94;4809918;29;20038;-76
2023/05/29 08:09:12;;;;;;;9.93;9.13;;;;;;;45.37;10.67;99643.19;4808173;29;20046;-76
2023/05/29 08:11:45;;;;;;;8.55;7.93;;;;;;;44.66;10.58;99640.13;4804717;29;20054;-76
2023/05/29 08:14:15;;;;;;;7.18;6.47;;;;;;;43.57;10.99;99647.94;4804779;29;20415;-75
2023/05/29 08:16:42;;;;;;;6.90;6.47;;;;;;;43.75;11.28;99649.59;4774893;29;20069;-74
2023/05/29 08:19:07;;;;;;;7.72;7.10;;;;;;;43.12;11.05;99642.47;4790791;29;20061;-74
2023/05/29 08:21:32;;;;;;;7.18;6.70;;;;;;;42.23;11.46;99651.81;4790075;29;20043;-75
2023/05/29 08:24:01;;;;;;;6.82;6.43;;;;;;;42.82;11.13;99644.16;4791232;29;20046;-77
2023/05/29 08:26:28;;;;;;;7.30;6.80;;;;;;;43.65;11.08;99638.69;4791393;29;20413;-75
2023/05/29 08:29:19;;;;;;;7.05;6.45;;;;;;;45.46;11.18;99638.31;4805007;29;20054;-75
2023/05/29 08:31:45;;;;;;;7.60;6.80;;;;;;;45.77;11.06;99647.22;4807889;29;20394;-76
2023/05/29 08:34:38;;;;;;;9.20;8.50;;;;;;;47.45;11.06;99637.13;4809146;29;20437;-75
2023/05/29 08:40:00;;;;;;;10.02;9.38;;;;;;;47.95;10.26;99628.22;4808428;29;20421;-75
2023/05/29 08:42:53;;;;;;;10.55;9.73;;;;;;;48.96;10.19;99631.47;4808197;29;20408;-76
2023/05/29 08:45:22;;;;;;;12.95;12.15;;;;;;;47.80;9.65;99635.44;4808596;29;20390;-75
2023/05/29 08:47:52;;;;;;;13.07;11.27;;;;;;;47.46;9.81;99631.13;4808135;29;20068;-76
2023/05/29 08:50:18;;;;;;;11.07;10.38;;;;;;;46.97;10.15;99611.34;4806681;29;20406;-74
2023/05/29 08:52:43;;;;;;;11.63;10.93;;;;;;;46.68;9.81;99619.19;4807380;29;20520;-75
2023/05/29 08:58:01;;;;;;;11.50;10.70;;;;;;;47.45;9.64;99626.66;4822120;29;20045;-71
2023/05/29 09:00:29;;;;;;;10.65;9.73;;;;;;;46.32;9.42;99617.09;4791151;29;20053;-69
2023/05/29 09:02:55;;;;;;;11.13;10.25;;;;;;;45.44;10.16;99593.59;4807634;29;20058;-71
2023/05/29 09:05:21;;;;;;;10.65;9.93;;;;;;;45.81;10.31;99613.56;4807479;29;20042;-69
2023/05/29 09:07:49;;;;;;;11.60;10.80;;;;;;;46.38;9.78;99627.00;4807424;29;20061;-71
2023/05/29 09:10:41;;;;;;;;;;;;;;;49.20;9.70;99619.16;4808114;29;20053;-69
2023/05/29 09:13:09;;;;;;;12.65;11.88;;;;;;;47.79;9.62;99601.88;4807464;29;19928;-71
2023/05/29 09:16:02;;;;;;;12.68;11.88;;;;;;;48.40;9.46;99599.63;4817688;29;20076;-70
2023/05/29 09:19:04;;;;;;;14.07;13.07;;;;;;;50.12;9.08;99600.53;4821503;29;20409;-71
2023/05/29 09:21:33;;;;;;;17.15;16.10;;;;;;;49.97;8.91;99590.94;4807378;29;20045;-71
2023/05/29 09:24:27;;;;;;;18.77;17.77;;;;;;;50.81;8.52;99601.47;4821313;29;20414;-72
2023/05/29 09:27:00;;;;;;;19.85;18.65;;;;;;;49.19;8.42;99596.84;4820678;29;20042;-70
2023/05/29 09:29:31;;;;;;;15.68;14.77;;;;;;;48.14;8.94;99597.28;4806006;29;20054;-70
2023/05/29 09:31:59;;;;;;;13.93;12.82;;;;;;;46.93;9.58;99587.84;4805928;29;20045;-71
2023/05/29 09:34:27;;;;;;;14.95;13.98;;;;;;;46.56;10.14;99584.13;4789331;29;20069;-70
2023/05/29 09:37:08;;;;;;;14.35;13.38;;;;;;;46.75;9.65;99577.94;4802624;29;20509;-71
2023/05/29 09:39:48;;;;;;;14.52;13.70;;;;;;;48.11;9.10;99594.34;4788833;29;20054;-69
2023/05/29 09:42:19;;;;;;;15.73;14.65;;;;;;;47.71;9.46;99585.88;4802566;29;20062;-71
2023/05/29 09:44:48;;;;;;;15.93;14.93;;;;;;;47.65;9.02;99574.81;4802228;29;20069;-71
2023/05/29 09:50:29;;;;;;;13.27;12.25;;;;;;;46.58;9.90;99570.50;4787649;29;20061;-71
2023/05/29 09:53:01;;;;;;;15.10;14.02;;;;;;;47.60;9.46;99563.78;4802724;29;20077;-72
2023/05/29 09:55:30;;;;;;;17.48;16.20;;;;;;;48.36;8.75;99576.88;4802618;29;20520;-71
2023/05/29 09:57:58;;;;;;;15.77;14.13;;;;;;;47.47;8.49;99567.81;4801448;29;20037;-71
2023/05/29 10:00:25;;;;;;;15.40;14.30;;;;;;;46.00;9.12;99554.72;4804647;29;20053;-74
2023/05/29 10:03:42;;;;;;;12.82;11.82;;;;;;;45.40;9.21;99553.19;4791890;29;20053;-76
2023/05/29 10:06:18;;;;;;;15.50;14.50;;;;;;;46.42;8.81;99554.59;4789273;29;20042;-75
2023/05/29 10:12:40;;;;;;;14.32;13.52;;;;;;;46.15;9.24;99561.69;4798513;29;20038;-76
2023/05/29 10:15:13;;;;;;;13.98;13.02;;;;;;;45.71;9.23;99564.09;4794347;29;20058;-70
2023/05/29 10:17:53;;;;;;;13.80;12.88;;;;;;;45.86;9.16;99552.16;4800027;29;20057;-72
2023/05/29 10:20:21;;;;;;;12.55;11.85;;;;;;;45.90;9.49;99561.59;4803472;29;20046;-70
2023/05/29 10:22:50;;;;;;;13.05;12.25;;;;;;;46.74;9.33;99550.06;4798549;29;20175;-71
2023/05/29 10:25:21;;;;;;;16.20;15.30;;;;;;;47.90;8.60;99552.13;4777244;29;20480;-71
2023/05/29 10:27:48;;;;;;;14.57;13.57;;;;;;;46.55;9.40;99553.44;4807464;29;20058;-72
2023/05/29 10:30:58;;;;;;;10.63;9.63;;;;;;;44.07;9.87;99538.72;4804939;29;20287;-71
2023/05/29 10:33:38;;;;;;;7.28;6.70;;;;;;;40.85;11.52;99562.84;4795779;29;20065;-71
2023/05/29 10:39:30;;;;;;;4.50;4.18;;;;;;;33.06;14.84;99544.13;4782890;29;20061;-71
2023/05/29 10:41:59;;;;;;;4.90;3.95;;;;;;;31.08;16.28;99551.03;4787963;29;20529;-69
2023/05/29 10:44:32;;;;;;;3.55;3.25;;;;;;;29.62;18.07;99558.38;4803031;29;20072;-71
2023/05/29 10:47:05;;;;;;;11.60;3.40;;;;;;;28.84;18.06;99550.13;4788216;29;20042;-69
2023/05/29 10:49:31;;;;;;;3.27;2.97;;;;;;;27.63;18.97;99556.13;4803189;29;20049;-70
2023/05/29 10:52:01;;;;;;;2.90;2.70;;;;;;;26.66;20.30;99572.78;4801192;29;20053;-68
2023/05/29 10:54:53;;;;;;;3.78;3.13;;;;;;;26.20;20.79;99534.56;4801667;29;20054;-70
2023/05/29 10:57:20;;;;;;;2.78;2.58;;;;;;;25.30;21.40;99541.47;4800203;29;20050;-69
2023/05/29 10:59:46;;;;;;;2.85;2.38;;;;;;;24.75;22.95;99542.53;4800587;29;20050;-70
2023/05/29 11:02:18;;;;;;;2.92;2.65;;;;;;;24.62;23.03;99551.47;4787925;29;20481;-69
2023/05/29 11:05:03;;;;;;;6.90;3.47;;;;;;;24.48;23.00;99575.13;4787652;29;20061;-69
2023/05/29 11:07:51;;;;;;;;;;;;;;;24.79;22.20;99547.38;4804687;29;20073;-70
2023/05/29 11:10:16;;;;;;;3.78;3.42;;;;;;;23.85;23.64;99499.84;4805225;29;19928;-70
2023/05/29 11:12:58;;;;;;;2.80;2.42;;;;;;;23.68;24.54;99548.31;4802765;29;20042;-69
2023/05/29 11:15:26;;;;;;;5.10;2.92;;;;;;;23.44;25.03;99546.81;4815012;29;20061;-72
2023/05/29 11:17:55;;;;;;;6.47;3.13;;;;;;;23.43;24.97;99541.56;4801802;29;20047;-71
2023/05/29 11:20:58;;;;;;;10.60;3.25;;;;;;;23.21;25.63;99539.88;4787128;29;20050;-70
2023/05/29 11:23:31;;;;;;;9.20;3.42;;;;;;;23.06;26.51;99564.38;4803211;29;20053;-71
2023/05/29 11:26:02;;;;;;;2.65;2.33;;;;;;;22.88;25.12;99548.50;4796867;29;20054;-71
2023/05/29 11:28:29;;;;;;;6.25;2.58;;;;;;;22.70;24.74;99548.00;4808026;29;20046;-71
2023/05/29 11:31:01;;;;;;;3.30;2.40;;;;;;;22.67;24.71;99542.97;4791012;29;20050;-68
2023/05/29 11:33:31;;;;;;;3.00;2.58;;;;;;;22.51;25.21;99576.59;4803914;29;20058;-73
2023/05/29 11:36:00;;;;;;;3.42;2.65;;;;;;;22.25;25.55;99546.34;4805939;29;20049;-70
2023/05/29 11:38:30;;;;;;;2.33;1.98;;;;;;;22.18;25.44;99538.13;4809094;29;20057;-71
2023/05/29 11:40:58;;;;;;;3.97;2.55;;;;;;;22.13;25.77;99529.66;4790599;29;20053;-70
2023/05/29 11:43:24;;;;;;;3.25;2.47;;;;;;;22.14;26.41;99515.06;4803684;29;20057;-69
2023/05/29 11:45:51;;;;;;;4.28;2.22;;;;;;;22.17;26.32;99535.56;4801446;29;20506;-69
2023/05/29 11:48:23;;;;;;;5.30;3.70;;;;;;;22.17;25.95;99535.56;4799607;29;20061;-69
2023/05/29 11:53:43;;;;;;;2.28;2.08;;;;;;;22.03;27.57;99519.09;4790492;29;20814;-69
2023/05/29 11:56:12;;;;;;;4.72;2.38;;;;;;;22.05;27.08;99527.91;4807122;29;20050;-67
2023/05/29 11:58:40;;;;;;;3.88;2.75;;;;;;;22.05;26.68;99517.03;4803452;29;20512;-69
2023/05/29 12:01:08;;;;;;;3.15;2.47;;;;;;;22.05;25.98;99516.19;4808355;29;20046;-72
2023/05/29 12:06:38;;;;;;;4.10;2.72;;;;;;;21.97;25.77;99511.66;4807157;29;20140;-71
2023/05/29 12:09:05;;;;;;;5.03;3.00;;;;;;;21.90;26.17;99513.41;4808380;29;20050;-69
2023/05/29 12:11:30;;;;;;;2.60;2.00;;;;;;;21.80;25.89;99507.41;4808485;29;20046;-74
2023/05/29 12:14:20;;;;;;;3.85;2.33;;;;;;;21.95;25.97;99512.88;4808831;29;20525;-73
2023/05/29 12:17:14;;;;;;;4.45;3.33;;;;;;;21.71;26.14;99505.81;4819714;29;20069;-74
2023/05/29 12:20:09;;;;;;;2.78;2.13;;;;;;;21.66;25.57;99519.09;4808401;29;20058;-70
2023/05/29 12:22:36;;;;;;;2.85;2.50;;;;;;;21.42;26.01;99513.88;4823089;29;20421;-74
2023/05/29 12:25:28;;;;;;;7.68;2.60;;;;;;;21.24;26.75;99527.75;4806897;29;20049;-71
2023/05/29 12:27:56;;;;;;;3.95;2.38;;;;;;;21.19;27.43;99508.47;4797803;29;20054;-70
2023/05/29 12:30:25;;;;;;;4.55;2.80;;;;;;;21.20;27.31;99510.16;4805042;29;20061;-73
2023/05/29 12:33:00;;;;;;;3.83;2.85;;;;;;;21.11;27.28;99506.63;4813661;29;20402;-73
2023/05/29 12:35:27;;;;;;;2.83;2.55;;;;;;;21.04;27.55;99505.66;4807604;29;20430;-72
2023/05/29 12:37:54;;;;;;;4.68;2.47;;;;;;;21.00;27.57;99499.75;4790339;29;20054;-73
2023/05/29 12:40:24;;;;;;;2.83;2.17;;;;;;;21.00;27.05;99486.19;4790209;29;20046;-73
2023/05/29 12:42:58;;;;;;;5.93;2.90;;;;;;;21.02;27.39;99507.69;4789842;29;20062;-73
2023/05/29 12:45:26;;;;;;;3.70;2.50;;;;;;;20.93;27.86;99509.63;4786018;29;20062;-73